Time;durP1;ratioP1;P1;durP2;ratioP2;P2;SDS_P1;SDS_P2;PMS_P1;PMS_P2;Temp;Humidity;BMP_temperature;BMP_pressure;BME280_temperature;BME280_humidity;BME280_pressure;Samples;Min_cycle;Max_cycle;Signal;HPM_P1;HPM_P2
2021/09/13 00:02:06;;;;;;;3.13;2.40;;;15.50;82.40;;;;;;5075196;28;20028;-85
2021/09/13 00:04:32;;;;;;;3.78;2.13;;;15.50;82.40;;;;;;5075041;28;20472;-85
2021/09/13 00:06:58;;;;;;;3.50;2.30;;;15.50;82.40;;;;;;5073722;28;20017;-85
2021/09/13 00:09:23;;;;;;;3.00;2.35;;;15.40;82.30;;;;;;5073594;28;20024;-85
2021/09/13 00:11:50;;;;;;;3.92;2.20;;;15.40;82.40;;;;;;5073644;28;20028;-85
2021/09/13 00:14:16;;;;;;;3.67;2.20;;;15.30;82.40;;;;;;5073406;28;20021;-85
2021/09/13 00:16:41;;;;;;;3.03;2.33;;;15.30;82.50;;;;;;5073674;28;20052;-85
2021/09/13 00:19:07;;;;;;;2.20;2.00;;;15.30;82.50;;;;;;5073305;28;20063;-85
2021/09/13 00:21:32;;;;;;;3.35;2.30;;;15.30;82.60;;;;;;5074687;28;20021;-84
2021/09/13 00:23:58;;;;;;;4.32;2.30;;;15.20;82.60;;;;;;5073622;28;20392;-85
2021/09/13 00:26:24;;;;;;;4.40;2.40;;;15.20;82.70;;;;;;5074417;28;20020;-85
2021/09/13 00:28:50;;;;;;;5.00;2.50;;;15.20;82.70;;;;;;5075142;28;20058;-86
2021/09/13 00:31:15;;;;;;;2.90;2.20;;;15.20;82.70;;;;;;5073480;28;20480;-85
2021/09/13 00:33:41;;;;;;;3.45;2.20;;;15.20;82.80;;;;;;5073400;28;20082;-86
2021/09/13 00:36:06;;;;;;;3.10;2.20;;;15.10;83.40;;;;;;5074489;28;20035;-86
2021/09/13 00:38:33;;;;;;;2.88;2.15;;;15.10;82.80;;;;;;5073704;28;20031;-83
2021/09/13 00:40:59;;;;;;;3.33;2.00;;;15.10;82.80;;;;;;5073831;28;20503;-85
2021/09/13 00:43:24;;;;;;;3.30;2.05;;;15.10;82.80;;;;;;5073869;28;20021;-85
2021/09/13 00:45:50;;;;;;;3.40;2.10;;;15.10;82.80;;;;;;5073738;28;20111;-85
2021/09/13 00:48:16;;;;;;;3.25;1.90;;;15.10;82.80;;;;;;5075152;28;20043;-85
2021/09/13 00:50:41;;;;;;;2.17;1.80;;;15.10;82.80;;;;;;5073132;28;20043;-85
2021/09/13 00:53:07;;;;;;;4.60;2.20;;;15.10;82.80;;;;;;5073716;28;20082;-85
2021/09/13 00:55:33;;;;;;;4.07;2.20;;;15.00;82.80;;;;;;5073533;28;20438;-85
2021/09/13 00:57:59;;;;;;;2.17;1.98;;;15.00;82.80;;;;;;5073533;28;20111;-84
2021/09/13 01:00:25;;;;;;;1.92;1.80;;;15.00;82.90;;;;;;5073395;28;20032;-85
2021/09/13 01:02:50;;;;;;;4.25;2.30;;;15.00;82.90;;;;;;5073708;28;20020;-84
2021/09/13 01:05:16;;;;;;;5.07;1.90;;;15.00;82.90;;;;;;5073641;28;20025;-85
2021/09/13 01:07:42;;;;;;;4.30;1.90;;;15.00;83.00;;;;;;5073742;28;20027;-85
2021/09/13 01:10:08;;;;;;;3.85;1.98;;;14.90;83.10;;;;;;5073323;28;20162;-84
2021/09/13 01:12:34;;;;;;;4.03;2.35;;;14.90;83.10;;;;;;5073494;28;20049;-84
2021/09/13 01:15:00;;;;;;;3.67;2.13;;;14.90;83.10;;;;;;5073770;28;20098;-84
2021/09/13 01:17:26;;;;;;;2.17;1.80;;;14.90;83.10;;;;;;5073476;28;20016;-85
2021/09/13 01:19:51;;;;;;;3.83;1.88;;;14.80;83.00;;;;;;5073784;28;20144;-86
2021/09/13 01:22:19;;;;;;;3.20;2.03;;;14.90;83.00;;;;;;5074176;28;20017;-86
2021/09/13 01:24:46;;;;;;;4.13;2.15;;;14.80;83.10;;;;;;5075003;28;20029;-84
2021/09/13 01:27:12;;;;;;;3.25;2.00;;;14.80;83.10;;;;;;5075884;28;20027;-85
2021/09/13 01:29:39;;;;;;;2.95;2.00;;;14.80;83.20;;;;;;5074301;28;20488;-85
2021/09/13 01:32:06;;;;;;;4.63;2.00;;;14.70;83.10;;;;;;5074408;28;20115;-84
2021/09/13 01:34:32;;;;;;;4.53;2.00;;;14.80;83.20;;;;;;5074006;28;20120;-84
2021/09/13 01:40:20;;;;;;;2.13;1.92;;;14.70;83.20;;;;;;5075107;28;20098;-86
2021/09/13 01:42:46;;;;;;;4.68;2.17;;;14.70;83.20;;;;;;5073522;28;20021;-75
2021/09/13 01:45:11;;;;;;;3.38;2.30;;;14.70;83.20;;;;;;5072493;28;20474;-75
2021/09/13 01:47:37;;;;;;;2.60;2.08;;;14.70;83.20;;;;;;5071139;28;20465;-75
2021/09/13 01:50:03;;;;;;;2.85;2.13;;;14.60;83.20;;;;;;5071231;28;20029;-75
2021/09/13 01:52:29;;;;;;;3.42;2.22;;;14.60;83.10;;;;;;5071334;28;20054;-74
2021/09/13 01:54:54;;;;;;;4.95;2.25;;;14.60;83.20;;;;;;5072498;28;20032;-74
2021/09/13 01:57:20;;;;;;;4.22;2.20;;;14.60;83.20;;;;;;5072208;28;20036;-74
2021/09/13 01:59:45;;;;;;;3.85;1.85;;;14.60;83.30;;;;;;5071021;28;20029;-74
2021/09/13 02:02:11;;;;;;;3.70;1.95;;;14.60;83.40;;;;;;5073362;28;20054;-74
2021/09/13 02:04:37;;;;;;;3.45;1.90;;;14.60;83.40;;;;;;5074964;28;20041;-75
2021/09/13 02:07:02;;;;;;;2.63;2.00;;;14.60;83.40;;;;;;5074900;28;20029;-75
2021/09/13 02:09:28;;;;;;;3.97;1.77;;;14.60;83.50;;;;;;5076206;28;20029;-76
2021/09/13 02:11:54;;;;;;;3.35;1.95;;;14.60;83.50;;;;;;5076055;28;20107;-75
2021/09/13 02:14:19;;;;;;;4.57;1.70;;;14.70;83.60;;;;;;5074933;28;20135;-75
2021/09/13 02:16:45;;;;;;;2.75;1.70;;;14.60;83.60;;;;;;5075995;28;20027;-75
2021/09/13 02:19:10;;;;;;;4.03;2.20;;;14.60;83.60;;;;;;5074648;28;20409;-75
2021/09/13 02:21:36;;;;;;;2.50;1.80;;;14.60;83.70;;;;;;5074592;28;20055;-75
2021/09/13 02:27:24;;;;;;;3.05;1.90;;;14.60;83.70;;;;;;5076438;28;20051;-80
2021/09/13 02:29:49;;;;;;;2.78;1.70;;;14.60;83.70;;;;;;5076257;28;20020;-78
2021/09/13 02:35:37;;;;;;;5.05;2.10;;;14.60;83.90;;;;;;5076114;28;20027;-79
2021/09/13 02:38:03;;;;;;;3.00;2.00;;;14.60;84.00;;;;;;5075775;28;20148;-78
2021/09/13 02:40:28;;;;;;;5.32;1.80;;;14.60;84.00;;;;;;5074566;28;20067;-78
2021/09/13 02:42:54;;;;;;;5.63;2.05;;;14.60;84.00;;;;;;5075557;28;20016;-79
2021/09/13 02:45:20;;;;;;;3.90;1.75;;;14.60;84.10;;;;;;5074339;28;20109;-79
2021/09/13 02:47:46;;;;;;;3.63;1.80;;;14.70;84.20;;;;;;5074310;28;20020;-79
2021/09/13 02:50:12;;;;;;;4.57;1.60;;;14.60;84.20;;;;;;5075597;28;20029;-79
2021/09/13 02:52:39;;;;;;;3.53;1.70;;;14.60;84.30;;;;;;5075412;28;20070;-79
2021/09/13 02:55:06;;;;;;;7.05;1.80;;;14.70;84.40;;;;;;5074088;28;20024;-79
2021/09/13 02:57:32;;;;;;;1.95;1.38;;;14.60;84.40;;;;;;5074563;28;20039;-78
2021/09/13 02:59:57;;;;;;;3.88;1.80;;;14.60;84.30;;;;;;5075252;28;20029;-78
2021/09/13 03:02:23;;;;;;;2.75;1.60;;;14.60;84.30;;;;;;5075347;28;20025;-78
2021/09/13 03:04:48;;;;;;;3.90;1.60;;;14.60;84.30;;;;;;5073951;28;20020;-79
2021/09/13 03:07:14;;;;;;;3.15;1.70;;;14.60;84.30;;;;;;5075111;28;20052;-74
2021/09/13 03:09:40;;;;;;;2.70;1.88;;;14.60;84.20;;;;;;5075162;28;20059;-74
2021/09/13 03:12:07;;;;;;;2.72;1.80;;;14.60;84.20;;;;;;5074881;28;20031;-73
2021/09/13 03:14:33;;;;;;;3.65;1.90;;;14.60;84.20;;;;;;5073720;28;20495;-73
2021/09/13 03:16:59;;;;;;;3.38;2.60;;;14.50;84.20;;;;;;5074046;28;20016;-73
2021/09/13 03:19:25;;;;;;;3.20;1.90;;;14.50;84.30;;;;;;5073663;28;20476;-73
2021/09/13 03:21:51;;;;;;;3.65;1.90;;;14.50;84.30;;;;;;5073592;28;20028;-74
2021/09/13 03:24:17;;;;;;;3.28;1.83;;;14.50;84.30;;;;;;5073558;28;20472;-74
2021/09/13 03:26:43;;;;;;;4.38;2.10;;;14.50;84.40;;;;;;5073452;28;20017;-74
2021/09/13 03:29:09;;;;;;;2.15;1.80;;;14.40;84.30;;;;;;5073397;28;20030;-79
2021/09/13 03:31:35;;;;;;;2.83;1.85;;;14.40;84.30;;;;;;5073506;28;20020;-78
2021/09/13 03:34:00;;;;;;;2.75;1.67;;;14.40;84.30;;;;;;5073387;28;20028;-78
2021/09/13 03:36:26;;;;;;;3.72;2.10;;;14.40;84.30;;;;;;5073288;28;20111;-79
2021/09/13 03:38:52;;;;;;;3.97;1.95;;;14.40;84.30;;;;;;5073513;28;20066;-78
2021/09/13 03:41:17;;;;;;;4.53;2.03;;;14.40;84.30;;;;;;5074447;28;20066;-78
2021/09/13 03:43:43;;;;;;;3.85;2.03;;;14.30;84.20;;;;;;5073021;28;20028;-79
2021/09/13 03:46:09;;;;;;;2.85;1.85;;;14.30;84.20;;;;;;5074713;28;20021;-79
2021/09/13 03:48:34;;;;;;;3.47;1.90;;;14.30;84.10;;;;;;5073316;28;20012;-79
2021/09/13 03:51:00;;;;;;;3.28;2.15;;;14.30;84.10;;;;;;5073360;28;20046;-78
2021/09/13 03:53:26;;;;;;;2.92;1.92;;;14.30;84.10;;;;;;5074273;28;20024;-79
2021/09/13 03:55:51;;;;;;;2.90;1.98;;;14.30;84.10;;;;;;5072806;28;20020;-79
2021/09/13 03:58:17;;;;;;;2.53;1.70;;;14.30;84.10;;;;;;5072878;28;20024;-78
2021/09/13 04:00:44;;;;;;;3.05;1.70;;;14.30;84.10;;;;;;5072750;28;20029;-78
2021/09/13 04:03:14;;;;;;;3.30;1.80;;;14.30;84.10;;;;;;5072698;28;20500;-78
2021/09/13 04:05:45;;;;;;;4.72;1.98;;;14.30;84.10;;;;;;5072631;28;20047;-79
2021/09/13 04:13:37;;;;;;;2.67;1.73;;;14.30;84.10;;;;;;5074147;28;20036;-78
2021/09/13 04:16:02;;;;;;;2.08;1.80;;;14.30;84.10;;;;;;5072820;28;20025;-79
2021/09/13 04:18:28;;;;;;;3.63;2.00;;;14.30;84.10;;;;;;5073521;28;20044;-79
2021/09/13 04:20:54;;;;;;;3.97;1.98;;;14.30;84.10;;;;;;5072371;28;20021;-79
2021/09/13 04:23:22;;;;;;;3.45;2.00;;;14.30;84.20;;;;;;5072181;28;20107;-79
2021/09/13 04:25:48;;;;;;;3.85;1.90;;;14.30;84.30;;;;;;5071766;28;20024;-79
2021/09/13 04:28:13;;;;;;;2.95;2.00;;;14.30;84.30;;;;;;5073670;28;20058;-80
2021/09/13 04:30:39;;;;;;;2.33;1.80;;;14.30;84.30;;;;;;5072133;28;20063;-79
2021/09/13 04:33:05;;;;;;;2.03;1.83;;;14.30;84.40;;;;;;5072216;28;20016;-79
2021/09/13 04:35:30;;;;;;;2.25;1.70;;;14.30;84.40;;;;;;5073394;28;20027;-79
2021/09/13 04:37:56;;;;;;;2.03;1.83;;;14.30;84.40;;;;;;5073714;28;20430;-79
2021/09/13 04:40:21;;;;;;;2.63;1.80;;;14.20;84.30;;;;;;5071966;28;20485;-78
2021/09/13 04:42:47;;;;;;;4.57;1.88;;;14.20;84.40;;;;;;5073295;28;20035;-79
2021/09/13 04:45:12;;;;;;;4.43;2.90;;;14.20;84.50;;;;;;5071900;28;20111;-79
2021/09/13 04:47:38;;;;;;;3.30;1.80;;;14.20;84.50;;;;;;5071962;28;20020;-79
2021/09/13 04:50:04;;;;;;;3.33;1.90;;;14.20;84.50;;;;;;5072121;28;20036;-79
2021/09/13 04:52:29;;;;;;;3.53;1.80;;;14.20;84.60;;;;;;5074342;28;20017;-80
2021/09/13 04:54:55;;;;;;;3.22;1.77;;;14.20;84.60;;;;;;5072014;28;20381;-79
2021/09/13 04:57:21;;;;;;;2.95;2.00;;;14.10;84.50;;;;;;5073139;28;20021;-79
2021/09/13 04:59:46;;;;;;;2.53;2.10;;;14.10;84.60;;;;;;5071695;28;20034;-80
2021/09/13 05:02:12;;;;;;;3.20;2.05;;;14.10;84.70;;;;;;5073033;28;20029;-79
2021/09/13 05:04:37;;;;;;;3.50;1.75;;;14.10;84.70;;;;;;5073024;28;20052;-79
2021/09/13 05:07:03;;;;;;;4.38;2.22;;;14.10;84.80;;;;;;5071753;28;20066;-79
2021/09/13 05:09:29;;;;;;;3.78;2.13;;;14.10;84.80;;;;;;5071788;28;20116;-79
2021/09/13 05:11:55;;;;;;;2.30;1.95;;;14.10;84.80;;;;;;5072982;28;20066;-80
2021/09/13 05:14:21;;;;;;;3.30;2.22;;;14.10;84.80;;;;;;5073002;28;20070;-79
2021/09/13 05:16:46;;;;;;;4.97;2.40;;;14.10;84.90;;;;;;5071463;28;20017;-79
2021/09/13 05:19:12;;;;;;;3.40;2.53;;;14.10;85.10;;;;;;5072593;28;20105;-80
2021/09/13 05:21:38;;;;;;;3.92;2.50;;;14.10;85.10;;;;;;5071519;28;20020;-80
2021/09/13 05:24:05;;;;;;;7.22;2.83;;;14.20;85.10;;;;;;5071542;28;20051;-80
2021/09/13 05:26:31;;;;;;;6.82;2.63;;;14.20;85.10;;;;;;5071396;28;20017;-79
2021/09/13 05:28:57;;;;;;;5.63;2.47;;;14.30;85.10;;;;;;5071677;28;20040;-79
2021/09/13 05:31:23;;;;;;;5.97;2.60;;;14.30;85.10;;;;;;5071473;28;20016;-79
2021/09/13 05:33:49;;;;;;;3.72;2.53;;;14.40;85.10;;;;;;5072750;28;20028;-79
2021/09/13 05:36:14;;;;;;;5.82;2.50;;;14.40;85.10;;;;;;5073990;28;20020;-80
2021/09/13 05:38:40;;;;;;;6.80;2.85;;;14.40;85.10;;;;;;5076893;28;20392;-80
2021/09/13 05:41:05;;;;;;;4.65;2.58;;;14.50;85.10;;;;;;5075600;28;20024;-80
2021/09/13 05:43:31;;;;;;;5.93;3.10;;;14.50;85.20;;;;;;5075469;28;20032;-80
2021/09/13 05:45:57;;;;;;;4.40;2.75;;;14.50;85.20;;;;;;5075339;28;20021;-80
2021/09/13 05:48:24;;;;;;;7.63;3.70;;;14.50;85.20;;;;;;5075276;28;20027;-78
2021/09/13 05:50:50;;;;;;;6.30;3.20;;;14.60;85.30;;;;;;5075290;28;20025;-79
2021/09/13 05:53:16;;;;;;;7.68;3.40;;;14.60;85.30;;;;;;5075149;28;20481;-78
2021/09/13 05:55:43;;;;;;;6.18;3.08;;;14.60;85.20;;;;;;5075509;28;20549;-79
2021/09/13 05:58:09;;;;;;;6.10;3.53;;;14.60;85.30;;;;;;5075089;28;20044;-79
2021/09/13 06:00:35;;;;;;;5.18;3.60;;;14.70;85.30;;;;;;5076270;28;20532;-78
2021/09/13 06:03:01;;;;;;;5.53;3.55;;;14.70;85.30;;;;;;5076374;28;20101;-78
2021/09/13 06:05:27;;;;;;;5.25;3.33;;;14.70;85.30;;;;;;5076301;28;20052;-78
2021/09/13 06:07:52;;;;;;;4.88;3.83;;;14.70;85.30;;;;;;5074835;28;20029;-78
2021/09/13 06:10:19;;;;;;;4.75;3.90;;;14.70;85.90;;;;;;5075240;28;20036;-78
2021/09/13 06:12:45;;;;;;;5.00;3.90;;;14.80;85.40;;;;;;5076217;28;20519;-79
2021/09/13 06:15:11;;;;;;;6.38;3.55;;;14.80;85.40;;;;;;5074822;28;20021;-79
2021/09/13 06:17:36;;;;;;;6.70;3.70;;;14.80;85.40;;;;;;5076001;28;20025;-80
2021/09/13 06:20:04;;;;;;;7.13;4.20;;;14.80;85.40;;;;;;5075837;28;20126;-77
2021/09/13 06:22:30;;;;;;;8.40;4.43;;;14.80;85.40;;;;;;5074970;28;20044;-80
2021/09/13 06:24:56;;;;;;;7.30;4.40;;;14.80;85.40;;;;;;5074897;28;20482;-78
2021/09/13 06:27:21;;;;;;;8.27;3.95;;;14.90;85.50;;;;;;5076395;28;20024;-78
2021/09/13 06:29:47;;;;;;;7.68;4.57;;;14.90;85.50;;;;;;5075868;28;20434;-79
2021/09/13 06:32:13;;;;;;;8.18;4.68;;;14.90;85.40;;;;;;5074603;28;20024;-78
2021/09/13 06:34:38;;;;;;;6.28;4.20;;;14.90;85.40;;;;;;5074461;28;20086;-79
2021/09/13 06:37:04;;;;;;;5.53;4.03;;;14.90;85.40;;;;;;5074535;28;20027;-79
2021/09/13 06:39:30;;;;;;;5.10;3.70;;;15.00;85.40;;;;;;5075965;28;20052;-79
2021/09/13 06:41:55;;;;;;;7.68;3.90;;;15.00;85.30;;;;;;5074386;28;20024;-77
2021/09/13 06:44:23;;;;;;;6.18;3.78;;;15.10;85.30;;;;;;5074560;28;20024;-78
2021/09/13 06:47:21;;;;;;;6.38;3.78;;;15.10;85.20;;;;;;5073506;28;20016;-76
2021/09/13 06:49:36;;;;;;;6.00;3.72;;;15.20;85.10;;;;;;5075287;28;20380;-76
2021/09/13 06:55:24;;;;;;;5.68;3.78;;;15.30;85.00;;;;;;5075529;28;20371;-77
2021/09/13 06:57:50;;;;;;;7.53;4.30;;;15.30;84.90;;;;;;5074177;28;20107;-75
2021/09/13 07:00:18;;;;;;;5.93;4.63;;;15.40;84.80;;;;;;5075321;28;20052;-75
2021/09/13 07:02:45;;;;;;;6.90;4.40;;;15.40;84.80;;;;;;5075270;28;20024;-75
2021/09/13 07:05:11;;;;;;;6.30;4.88;;;15.40;84.90;;;;;;5074028;28;20049;-80
2021/09/13 07:07:37;;;;;;;7.43;4.53;;;15.40;84.90;;;;;;5073863;28;20032;-77
2021/09/13 07:10:05;;;;;;;7.63;4.45;;;15.40;84.90;;;;;;5075041;28;20021;-79
2021/09/13 07:12:30;;;;;;;5.85;4.32;;;15.50;84.90;;;;;;5073633;28;20021;-77
2021/09/13 07:14:56;;;;;;;5.57;3.70;;;15.60;84.90;;;;;;5071287;28;20032;-77
2021/09/13 07:17:22;;;;;;;5.25;4.65;;;15.70;84.80;;;;;;5068046;28;20119;-76
2021/09/13 07:19:47;;;;;;;7.00;3.92;;;15.80;84.60;;;;;;5073318;28;20170;-76
2021/09/13 07:22:13;;;;;;;5.47;4.00;;;15.90;84.60;;;;;;5074918;28;20146;-75
2021/09/13 07:24:43;;;;;;;5.75;4.07;;;15.90;84.50;;;;;;5073443;28;20021;-76
2021/09/13 07:27:49;;;;;;;5.68;3.80;;;16.00;84.30;;;;;;5074722;28;20020;-76
2021/09/13 07:30:17;;;;;;;4.90;3.97;;;16.20;84.30;;;;;;5074529;28;20035;-75
2021/09/13 07:32:43;;;;;;;7.60;4.20;;;16.20;84.00;;;;;;5073387;28;20020;-74
2021/09/13 07:35:11;;;;;;;4.50;3.72;;;16.40;84.00;;;;;;5074613;28;20024;-74
2021/09/13 07:37:38;;;;;;;5.32;4.00;;;16.40;83.80;;;;;;5074640;28;20043;-74
2021/09/13 07:40:05;;;;;;;5.05;4.22;;;16.50;83.70;;;;;;5074401;28;20102;-74
2021/09/13 07:42:31;;;;;;;5.65;4.03;;;16.60;83.70;;;;;;5074448;28;20020;-76
2021/09/13 07:44:58;;;;;;;7.50;4.18;;;16.60;83.50;;;;;;5072903;28;20017;-75
2021/09/13 07:47:24;;;;;;;5.15;3.90;;;16.60;83.50;;;;;;5072825;28;20017;-72
2021/09/13 07:49:50;;;;;;;5.68;3.78;;;16.70;83.50;;;;;;5072799;28;20127;-73
2021/09/13 07:52:15;;;;;;;4.78;3.90;;;16.80;83.50;;;;;;5074109;28;20476;-73
2021/09/13 07:54:41;;;;;;;6.00;3.63;;;16.80;83.40;;;;;;5072912;28;20096;-73
2021/09/13 07:57:07;;;;;;;4.78;3.90;;;16.90;83.30;;;;;;5072967;28;20025;-72
2021/09/13 07:59:33;;;;;;;4.40;3.47;;;16.90;83.10;;;;;;5072893;28;20078;-73
2021/09/13 08:01:58;;;;;;;4.45;3.30;;;17.00;83.10;;;;;;5072646;28;20366;-73
2021/09/13 08:04:24;;;;;;;4.10;3.22;;;17.10;83.00;;;;;;5072686;28;20454;-73
2021/09/13 08:06:49;;;;;;;3.45;2.60;;;17.20;82.80;;;;;;5072410;28;20020;-73
2021/09/13 08:09:15;;;;;;;5.28;3.67;;;17.30;82.70;;;;;;5072644;28;20101;-72
2021/09/13 08:11:40;;;;;;;4.78;3.67;;;17.40;82.50;;;;;;5072583;28;20021;-73
2021/09/13 08:14:06;;;;;;;5.85;3.90;;;17.50;82.40;;;;;;5072507;28;20400;-73
2021/09/13 08:16:32;;;;;;;6.68;4.07;;;17.50;82.30;;;;;;5072453;28;20444;-72
2021/09/13 08:18:59;;;;;;;5.72;3.47;;;17.50;82.30;;;;;;5073540;28;20059;-72
2021/09/13 08:21:26;;;;;;;3.08;2.78;;;17.60;82.30;;;;;;5072356;28;20017;-73
2021/09/13 08:23:52;;;;;;;3.53;2.90;;;17.60;82.10;;;;;;5072277;28;20476;-73
2021/09/13 08:26:17;;;;;;;2.70;2.30;;;17.70;82.00;;;;;;5073586;28;20024;-73
2021/09/13 08:28:44;;;;;;;7.78;2.40;;;17.90;81.80;;;;;;5072244;28;20105;-73
2021/09/13 08:31:10;;;;;;;3.45;2.10;;;18.00;81.60;;;;;;5073478;28;20554;-74
2021/09/13 08:33:36;;;;;;;3.15;2.15;;;18.20;81.30;;;;;;5073393;28;20012;-74
2021/09/13 08:36:03;;;;;;;2.03;1.48;;;18.30;81.10;;;;;;5073350;28;20024;-74
2021/09/13 08:38:29;;;;;;;2.85;2.03;;;18.40;80.80;;;;;;5071867;28;20399;-74
2021/09/13 08:40:55;;;;;;;2.08;1.35;;;18.50;80.50;;;;;;5071910;28;20122;-75
2021/09/13 08:43:21;;;;;;;1.60;1.30;;;18.50;80.40;;;;;;5072072;28;20117;-74
2021/09/13 08:48:30;;;;;;;3.00;1.00;;;18.40;80.10;;;;;;5073533;28;20379;-74
2021/09/13 08:51:17;;;;;;;2.17;1.17;;;18.40;80.00;;;;;;5071845;28;20029;-74
2021/09/13 08:53:52;;;;;;;2.05;1.20;;;18.40;80.00;;;;;;5071901;28;20119;-74
2021/09/13 08:56:18;;;;;;;1.35;1.08;;;18.40;79.90;;;;;;5071837;28;20025;-74
2021/09/13 08:58:45;;;;;;;1.27;1.02;;;18.50;79.90;;;;;;5073120;28;20032;-74
2021/09/13 09:01:12;;;;;;;1.33;1.05;;;18.50;79.80;;;;;;5071770;28;20051;-74
2021/09/13 09:03:39;;;;;;;1.45;1.10;;;18.50;79.70;;;;;;5071684;28;20392;-74
2021/09/13 09:06:05;;;;;;;1.85;1.40;;;18.60;79.70;;;;;;5072894;28;20024;-74
2021/09/13 09:08:36;;;;;;;2.42;1.15;;;18.70;79.60;;;;;;5073024;28;20077;-74
2021/09/13 09:11:04;;;;;;;2.60;1.45;;;18.70;79.50;;;;;;5072628;28;20029;-74
2021/09/13 09:13:42;;;;;;;1.13;0.90;;;18.70;79.40;;;;;;5071643;28;20115;-74
2021/09/13 09:16:09;;;;;;;3.67;1.38;;;18.70;79.30;;;;;;5071537;28;20086;-74
2021/09/13 09:18:42;;;;;;;1.73;0.82;;;18.80;79.10;;;;;;5072689;28;20052;-74
2021/09/13 09:21:10;;;;;;;1.10;1.00;;;18.80;78.90;;;;;;5054885;28;20149;-74
2021/09/13 09:23:57;;;;;;;1.40;0.80;;;18.80;78.80;;;;;;5072856;28;20070;-74
2021/09/13 09:26:23;;;;;;;0.98;0.77;;;18.90;78.60;;;;;;5072768;28;20024;-74
2021/09/13 09:28:49;;;;;;;2.63;0.80;;;18.90;78.50;;;;;;5071429;28;20116;-74
2021/09/13 09:31:32;;;;;;;0.85;0.70;;;18.90;78.40;;;;;;5071576;28;20515;-74
2021/09/13 09:34:11;;;;;;;1.10;0.70;;;19.00;78.40;;;;;;5072723;28;20036;-74
2021/09/13 09:36:37;;;;;;;1.30;0.70;;;19.00;78.30;;;;;;5072923;28;20392;-74
2021/09/13 09:39:10;;;;;;;1.77;0.80;;;19.10;78.20;;;;;;5071220;28;20036;-74
2021/09/13 09:41:40;;;;;;;;;;;19.10;78.10;;;;;;5073260;28;20024;-74
2021/09/13 09:44:06;;;;;;;0.63;0.63;;;19.10;78.10;;;;;;5072545;28;19915;-74
2021/09/13 09:46:38;;;;;;;2.75;0.73;;;19.10;78.00;;;;;;5071771;28;20029;-73
2021/09/13 09:49:23;;;;;;;1.10;0.90;;;19.10;77.80;;;;;;5072615;28;20017;-75
2021/09/13 09:51:53;;;;;;;2.53;0.90;;;19.10;77.60;;;;;;5072564;28;20059;-74
2021/09/13 09:54:21;;;;;;;2.03;0.90;;;19.20;77.70;;;;;;5071204;28;20029;-75
2021/09/13 09:56:59;;;;;;;2.25;0.75;;;19.20;77.60;;;;;;5072526;28;20052;-75
2021/09/13 09:59:25;;;;;;;1.00;0.90;;;19.30;77.40;;;;;;5072402;28;20032;-75
2021/09/13 10:01:57;;;;;;;1.52;0.85;;;19.40;77.30;;;;;;5072730;28;20020;-74
2021/09/13 10:04:25;;;;;;;2.20;1.05;;;19.40;77.20;;;;;;5071229;28;20363;-74
2021/09/13 10:06:58;;;;;;;1.70;1.08;;;19.40;77.10;;;;;;5071138;28;20028;-74
2021/09/13 10:09:31;;;;;;;2.72;0.82;;;19.50;77.00;;;;;;5071081;28;20446;-74
2021/09/13 10:12:02;;;;;;;1.88;1.40;;;19.50;77.00;;;;;;5072328;28;20173;-74
2021/09/13 10:17:51;;;;;;;1.35;0.80;;;19.50;76.60;;;;;;5072683;28;20074;-74
2021/09/13 10:20:17;;;;;;;2.90;1.00;;;19.60;76.50;;;;;;5070761;28;20052;-74
2021/09/13 10:22:46;;;;;;;1.63;1.00;;;19.60;76.90;;;;;;5072436;28;20068;-75
2021/09/13 10:25:12;;;;;;;1.58;0.90;;;19.80;76.10;;;;;;5074685;28;20115;-75
2021/09/13 10:27:47;;;;;;;0.90;0.70;;;19.80;75.90;;;;;;5074567;28;20028;-74
2021/09/13 10:30:23;;;;;;;1.95;0.80;;;19.90;75.60;;;;;;5074380;28;20032;-75
2021/09/13 10:32:51;;;;;;;1.08;0.80;;;20.10;75.40;;;;;;5074434;28;20051;-74
2021/09/13 10:35:20;;;;;;;1.85;1.02;;;20.20;75.20;;;;;;5075881;28;20036;-74
2021/09/13 10:37:51;;;;;;;1.63;1.20;;;20.20;75.00;;;;;;5074385;28;20089;-75
2021/09/13 10:40:16;;;;;;;1.52;0.95;;;20.30;74.80;;;;;;5075584;28;20028;-74
2021/09/13 10:42:46;;;;;;;1.35;0.70;;;20.30;74.70;;;;;;5074208;28;20476;-75
2021/09/13 10:45:28;;;;;;;0.80;0.80;;;20.30;74.60;;;;;;5075486;28;20020;-74
2021/09/13 10:51:18;;;;;;;1.42;0.82;;;20.20;74.30;;;;;;5075585;28;20027;-75
2021/09/13 10:53:54;;;;;;;2.15;0.80;;;20.20;74.30;;;;;;5074227;28;20039;-75
2021/09/13 10:56:23;;;;;;;2.08;0.70;;;20.20;74.30;;;;;;5074243;28;20036;-74
2021/09/13 10:58:54;;;;;;;0.70;0.70;;;20.20;74.20;;;;;;5074100;28;20032;-75
2021/09/13 11:01:22;;;;;;;1.25;0.70;;;20.20;74.10;;;;;;5075306;28;20062;-75
2021/09/13 11:03:50;;;;;;;2.08;0.90;;;20.10;73.80;;;;;;5075292;28;20029;-75
2021/09/13 11:06:16;;;;;;;1.60;0.80;;;19.90;73.50;;;;;;5073910;28;20024;-75
2021/09/13 11:08:49;;;;;;;2.20;0.88;;;19.80;73.80;;;;;;5075118;28;20082;-74
2021/09/13 11:11:25;;;;;;;2.33;1.27;;;19.70;74.00;;;;;;5075190;28;20029;-75
2021/09/13 11:14:04;;;;;;;1.33;0.82;;;19.60;74.30;;;;;;5073842;28;20028;-74
2021/09/13 11:16:32;;;;;;;1.30;0.90;;;19.50;74.60;;;;;;5073717;28;20066;-74
2021/09/13 11:18:59;;;;;;;2.78;0.85;;;19.40;74.70;;;;;;5073437;28;20041;-75
2021/09/13 11:21:37;;;;;;;2.17;0.73;;;19.40;74.90;;;;;;5074922;28;20029;-75
2021/09/13 11:24:09;;;;;;;1.20;0.75;;;19.30;75.00;;;;;;5074723;28;20086;-74
2021/09/13 11:26:41;;;;;;;1.90;0.80;;;19.30;75.30;;;;;;5074737;28;20036;-74
2021/09/13 11:29:11;;;;;;;1.33;0.82;;;19.30;75.40;;;;;;5073539;28;20032;-74
2021/09/13 11:31:41;;;;;;;1.88;0.90;;;19.30;75.30;;;;;;5073310;28;20476;-74
2021/09/13 11:34:13;;;;;;;3.30;0.90;;;19.30;75.10;;;;;;5073323;28;20555;-74
2021/09/13 11:36:39;;;;;;;2.10;1.10;;;19.40;75.10;;;;;;5073305;28;20488;-74
2021/09/13 11:39:08;;;;;;;1.10;0.70;;;19.40;75.00;;;;;;5074400;28;20103;-74
2021/09/13 11:41:35;;;;;;;1.48;0.90;;;19.40;74.90;;;;;;5074472;28;20020;-74
2021/09/13 11:44:06;;;;;;;0.77;0.60;;;19.50;74.90;;;;;;5073267;28;20071;-74
2021/09/13 11:46:51;;;;;;;3.03;0.85;;;19.60;74.80;;;;;;5073172;28;20111;-74
2021/09/13 11:49:19;;;;;;;1.50;0.90;;;19.60;74.60;;;;;;5074310;28;20035;-74
2021/09/13 11:52:19;;;;;;;2.88;0.93;;;19.70;74.50;;;;;;5072893;28;20502;-74
2021/09/13 11:54:48;;;;;;;2.92;0.75;;;19.80;74.20;;;;;;5072968;28;20033;-74
2021/09/13 11:57:31;;;;;;;2.22;0.98;;;19.70;74.10;;;;;;5072929;28;20060;-74
2021/09/13 12:00:00;;;;;;;1.13;0.80;;;19.80;74.10;;;;;;5072758;28;20035;-74
2021/09/13 12:02:28;;;;;;;1.88;0.90;;;19.80;74.10;;;;;;5072806;28;20048;-74
2021/09/13 12:04:54;;;;;;;1.88;1.00;;;20.00;74.00;;;;;;5074106;28;20039;-74
2021/09/13 12:07:20;;;;;;;0.65;0.65;;;20.10;73.80;;;;;;5072730;28;20025;-74
2021/09/13 12:09:49;;;;;;;1.58;0.80;;;20.20;73.70;;;;;;5074103;28;20388;-75
2021/09/13 12:12:18;;;;;;;1.85;0.60;;;20.20;73.50;;;;;;5072561;28;20031;-73
2021/09/13 12:14:44;;;;;;;1.52;0.65;;;20.40;73.20;;;;;;5072531;28;20028;-74
2021/09/13 12:17:15;;;;;;;1.27;0.70;;;20.50;72.90;;;;;;5073820;28;20040;-74
2021/09/13 12:19:46;;;;;;;1.40;0.60;;;20.60;72.70;;;;;;5072300;28;20522;-74
2021/09/13 12:22:13;;;;;;;2.08;0.80;;;20.80;72.50;;;;;;5072388;28;20400;-75
2021/09/13 12:24:42;;;;;;;0.90;0.55;;;20.90;72.20;;;;;;5073804;28;20388;-74
2021/09/13 12:27:16;;;;;;;1.52;0.52;;;21.00;71.80;;;;;;5073647;28;20530;-74
2021/09/13 12:30:04;;;;;;;2.15;0.90;;;21.10;71.60;;;;;;5073692;28;20419;-74
2021/09/13 12:32:35;;;;;;;1.30;0.80;;;21.20;71.40;;;;;;5072226;28;20035;-74
2021/09/13 12:35:03;;;;;;;0.93;0.63;;;21.40;71.10;;;;;;5072280;28;20048;-74
2021/09/13 12:37:38;;;;;;;1.40;0.70;;;21.50;70.70;;;;;;5073665;28;20722;-74
2021/09/13 12:40:10;;;;;;;0.63;0.60;;;21.60;70.40;;;;;;5072070;28;20060;-74
2021/09/13 12:42:53;;;;;;;1.73;0.80;;;21.60;69.80;;;;;;5073425;28;20052;-75
2021/09/13 12:45:20;;;;;;;1.90;0.82;;;21.70;69.40;;;;;;5072735;28;20020;-74
2021/09/13 12:47:50;;;;;;;1.55;0.60;;;21.80;69.00;;;;;;5071943;28;20388;-74
2021/09/13 12:50:30;;;;;;;3.33;0.80;;;21.80;68.30;;;;;;5071998;28;20032;-75
2021/09/13 12:52:57;;;;;;;0.88;0.70;;;21.80;68.00;;;;;;5073407;28;20029;-75
2021/09/13 12:55:23;;;;;;;0.82;0.60;;;21.80;67.80;;;;;;5073210;28;20430;-75
2021/09/13 12:57:50;;;;;;;2.58;0.70;;;21.90;67.40;;;;;;5072207;28;20361;-75
2021/09/13 13:00:17;;;;;;;0.95;0.60;;;21.90;67.40;;;;;;5073488;28;20107;-75
2021/09/13 13:02:44;;;;;;;1.05;0.90;;;21.90;67.20;;;;;;5073083;28;20035;-74
2021/09/13 13:05:35;;;;;;;1.00;0.52;;;21.90;66.90;;;;;;5071800;28;20036;-74
2021/09/13 13:08:05;;;;;;;1.08;0.90;;;21.90;67.00;;;;;;5071620;28;20112;-74
2021/09/13 13:10:32;;;;;;;2.40;0.80;;;22.00;67.80;;;;;;5071851;28;20052;-74
2021/09/13 13:12:59;;;;;;;1.40;0.75;;;22.00;67.00;;;;;;5071802;28;20043;-74
2021/09/13 13:15:25;;;;;;;1.35;0.70;;;22.00;66.80;;;;;;5071417;28;20024;-74
2021/09/13 13:17:51;;;;;;;1.08;0.70;;;22.10;66.60;;;;;;5071644;28;20370;-74
2021/09/13 13:20:19;;;;;;;0.88;0.50;;;22.00;66.20;;;;;;5072692;28;20055;-74